Time;durP1;ratioP1;P1;durP2;ratioP2;P2;SDS_P1;SDS_P2;PMS_P1;PMS_P2;Temp;Humidity;BMP_temperature;BMP_pressure;BME280_temperature;BME280_humidity;BME280_pressure;Samples;Min_cycle;Max_cycle;Signal;HPM_P1;HPM_P2
2021/04/19 00:00:44;;;;;;;;;;;9.10;99.90;;;;;;5091617;28;19960;-73
2021/04/19 00:03:13;;;;;;;;;;;9.00;99.90;;;;;;5091120;28;20267;-72
2021/04/19 00:05:38;;;;;;;;;;;9.00;99.90;;;;;;5091894;28;20379;-72
2021/04/19 00:08:04;;;;;;;;;;;9.00;99.90;;;;;;5092851;28;19908;-72
2021/04/19 00:10:30;;;;;;;;;;;8.90;99.90;;;;;;5092079;28;19908;-72
2021/04/19 00:12:55;;;;;;;;;;;8.90;99.90;;;;;;5092005;28;19908;-71
2021/04/19 00:15:21;;;;;;;;;;;8.90;99.90;;;;;;5091785;28;20291;-72
2021/04/19 00:17:47;;;;;;;;;;;8.90;99.90;;;;;;5093211;28;20314;-72
2021/04/19 00:20:13;;;;;;;;;;;8.90;99.90;;;;;;5092686;28;20268;-72
2021/04/19 00:22:39;;;;;;;;;;;8.80;99.90;;;;;;5092719;28;19911;-72
2021/04/19 00:25:05;;;;;;;;;;;8.80;99.90;;;;;;5093572;28;19908;-72
2021/04/19 00:27:30;;;;;;;;;;;8.80;99.90;;;;;;5092609;28;20356;-72
2021/04/19 00:29:56;;;;;;;;;;;8.80;99.90;;;;;;5090679;28;19915;-72
2021/04/19 00:32:21;;;;;;;;;;;8.70;99.90;;;;;;5091339;28;19916;-72
2021/04/19 00:34:47;;;;;;;;;;;8.60;99.90;;;;;;5092866;28;19958;-73
2021/04/19 00:37:13;;;;;;;;;;;8.60;99.90;;;;;;5093149;28;20010;-73
2021/04/19 00:39:38;;;;;;;;;;;8.70;99.90;;;;;;5092390;28;19908;-72
2021/04/19 00:42:04;;;;;;;;;;;8.70;99.90;;;;;;5090828;28;19916;-73
2021/04/19 00:44:30;;;;;;;;;;;8.60;99.90;;;;;;5091701;28;19995;-72
2021/04/19 00:46:56;;;;;;;;;;;8.60;99.90;;;;;;5091747;28;20339;-71
2021/04/19 00:49:23;;;;;;;;;;;8.60;99.90;;;;;;5092327;28;20364;-72
2021/04/19 00:51:49;;;;;;;;;;;8.60;99.90;;;;;;5092326;28;19935;-72
2021/04/19 00:54:15;;;;;;;;;;;8.60;99.90;;;;;;5092703;28;19908;-72
2021/04/19 00:56:41;;;;;;;;;;;8.60;99.90;;;;;;5093206;28;20375;-71
2021/04/19 00:59:06;;;;;;;;;;;8.50;99.90;;;;;;5093215;28;19931;-72
2021/04/19 01:01:33;;;;;;;;;;;8.50;99.90;;;;;;5092097;28;19908;-73
2021/04/19 01:03:59;;;;;;;;;;;8.50;99.90;;;;;;5091651;28;19908;-72
2021/04/19 01:06:25;;;;;;;;;;;8.40;99.90;;;;;;5092723;28;20272;-72
2021/04/19 01:08:50;;;;;;;;;;;8.50;99.90;;;;;;5096669;28;19915;-71
2021/04/19 01:11:16;;;;;;;;;;;8.40;99.90;;;;;;5096910;28;19907;-72
2021/04/19 01:13:41;;;;;;;;;;;8.50;99.90;;;;;;5098146;28;19912;-72
2021/04/19 01:16:07;;;;;;;;;;;8.40;99.90;;;;;;5100864;28;19919;-72
2021/04/19 01:18:32;;;;;;;;;;;8.40;99.90;;;;;;5102186;28;19915;-70
2021/04/19 01:20:58;;;;;;;;;;;8.40;99.90;;;;;;5100273;28;19918;-72
2021/04/19 01:23:23;;;;;;;;;;;8.40;99.90;;;;;;5097026;28;19908;-72
2021/04/19 01:25:49;;;;;;;;;;;8.40;99.90;;;;;;5096338;28;19908;-72
2021/04/19 01:28:15;;;;;;;;;;;8.40;99.90;;;;;;5096749;28;19914;-71
2021/04/19 01:30:43;;;;;;;;;;;8.40;99.90;;;;;;5095619;28;20339;-71
2021/04/19 01:33:08;;;;;;;;;;;8.40;99.90;;;;;;5096184;28;20004;-72
2021/04/19 01:35:35;;;;;;;;;;;8.40;99.90;;;;;;5095044;28;20350;-71
2021/04/19 01:38:00;;;;;;;;;;;8.30;99.90;;;;;;5095900;28;20330;-71
2021/04/19 01:40:27;;;;;;;;;;;8.30;99.90;;;;;;5095053;28;19908;-71
2021/04/19 01:42:53;;;;;;;;;;;8.30;99.90;;;;;;5092245;28;19908;-71
2021/04/19 01:45:19;;;;;;;;;;;8.20;99.90;;;;;;5096168;28;19907;-72
2021/04/19 01:47:45;;;;;;;;;;;8.20;99.90;;;;;;5095809;28;19908;-72
2021/04/19 01:50:27;;;;;;;;;;;8.20;99.90;;;;;;5095585;28;20368;-72
2021/04/19 01:52:53;;;;;;;;;;;8.20;99.90;;;;;;5095509;28;19908;-71
2021/04/19 01:55:20;;;;;;;;;;;8.10;99.90;;;;;;5096165;28;20372;-71
2021/04/19 01:57:53;;;;;;;;;;;8.10;99.90;;;;;;5093480;28;19908;-71
2021/04/19 02:00:20;;;;;;;;;;;8.10;99.90;;;;;;5095365;28;19999;-71
2021/04/19 02:02:49;;;;;;;;;;;8.00;99.90;;;;;;5095685;28;19999;-71
2021/04/19 02:05:33;;;;;;;;;;;8.00;99.90;;;;;;5095871;28;19908;-71
2021/04/19 02:08:28;;;;;;;;;;;8.00;99.90;;;;;;5093768;28;20505;-71
2021/04/19 02:11:02;;;;;;;;;;;8.00;99.90;;;;;;5077390;28;19908;-71
2021/04/19 02:13:42;;;;;;;;;;;8.00;99.90;;;;;;5091157;28;19999;-71
2021/04/19 02:16:20;;;;;;;;;;;7.90;99.90;;;;;;5093415;28;19912;-71
2021/04/19 02:18:58;;;;;;;;;;;7.90;99.90;;;;;;5094449;28;19907;-71
2021/04/19 02:21:29;;;;;;;;;;;7.90;99.90;;;;;;5094857;28;19954;-71
2021/04/19 02:23:56;;;;;;;;;;;7.90;99.90;;;;;;5094413;28;19908;-71
2021/04/19 02:26:25;;;;;;;;;;;7.80;99.90;;;;;;5093412;28;20003;-71
2021/04/19 02:29:11;;;;;;;;;;;7.80;99.90;;;;;;5094799;28;19922;-71
2021/04/19 02:31:39;;;;;;;;;;;7.80;99.90;;;;;;5094230;28;19909;-72
2021/04/19 02:34:07;;;;;;;;;;;7.80;99.90;;;;;;5093879;28;19955;-72
2021/04/19 02:36:32;;;;;;;;;;;7.70;99.90;;;;;;5094052;28;19955;-71
2021/04/19 02:38:59;;;;;;;;;;;7.70;99.90;;;;;;5095145;28;20021;-71
2021/04/19 02:41:26;;;;;;;;;;;7.70;99.90;;;;;;5094503;28;19935;-72
2021/04/19 02:43:52;;;;;;;;;;;7.60;99.90;;;;;;5093317;28;20285;-73
2021/04/19 02:46:18;;;;;;;;;;;7.60;99.90;;;;;;5094779;28;19972;-71
2021/04/19 02:48:44;;;;;;;;;;;7.60;99.90;;;;;;5094243;28;20376;-71
2021/04/19 02:51:10;;;;;;;;;;;7.60;99.90;;;;;;5093834;28;20364;-71
2021/04/19 02:53:36;;;;;;;;;;;7.50;99.90;;;;;;5094128;28;19907;-72
2021/04/19 02:56:03;;;;;;;;;;;7.50;99.90;;;;;;5094021;28;19927;-72
2021/04/19 02:58:38;;;;;;;;;;;7.50;99.90;;;;;;5093065;28;20364;-71
2021/04/19 03:01:05;;;;;;;;;;;7.50;99.90;;;;;;5094913;28;20360;-72
2021/04/19 03:03:31;;;;;;;;;;;7.50;99.90;;;;;;5093187;28;19908;-71
2021/04/19 03:05:57;;;;;;;;;;;7.50;99.90;;;;;;5094951;28;19915;-72
2021/04/19 03:08:24;;;;;;;;;;;7.50;99.90;;;;;;5085924;28;20352;-73
2021/04/19 03:10:58;;;;;;;;;;;7.50;99.90;;;;;;5097015;28;19908;-72
2021/04/19 03:13:25;;;;;;;;;;;7.40;99.90;;;;;;5092585;28;19908;-73
2021/04/19 03:15:51;;;;;;;;;;;7.40;99.90;;;;;;5097807;28;20384;-73
2021/04/19 03:18:17;;;;;;;;;;;7.30;99.90;;;;;;5098861;28;19908;-73
2021/04/19 03:21:03;;;;;;;;;;;7.30;99.90;;;;;;5092839;28;19954;-72
2021/04/19 03:23:29;;;;;;;;;;;7.20;99.90;;;;;;5105613;28;20374;-72
2021/04/19 03:25:55;;;;;;;;;;;7.30;99.90;;;;;;5093589;28;19908;-73
2021/04/19 03:28:21;;;;;;;;;;;7.20;99.90;;;;;;5093290;28;19908;-72
2021/04/19 03:30:46;;;;;;;;;;;7.20;99.90;;;;;;5092751;28;19908;-72
2021/04/19 03:33:12;;;;;;;;;;;7.20;99.90;;;;;;5092816;28;19912;-73
2021/04/19 03:35:38;;;;;;;;;;;7.20;99.90;;;;;;5092273;28;19912;-72
2021/04/19 03:38:04;;;;;;;;;;;7.20;99.90;;;;;;5092883;28;19926;-69
2021/04/19 03:40:33;;;;;;;;;;;7.20;99.90;;;;;;5094263;28;19908;-68
2021/04/19 03:43:04;;;;;;;;;;;7.20;99.90;;;;;;5092119;28;20368;-68
2021/04/19 03:45:34;;;;;;;;;;;7.20;99.90;;;;;;5094250;28;19911;-68
2021/04/19 03:50:47;;;;;;;;;;;7.10;99.90;;;;;;5093202;28;19919;-67
2021/04/19 03:53:13;;;;;;;;;;;7.10;99.90;;;;;;5092462;28;20260;-67
2021/04/19 03:55:41;;;;;;;;;;;7.20;99.90;;;;;;5092815;28;19916;-68
2021/04/19 03:58:06;;;;;;;;;;;7.20;99.90;;;;;;5093671;28;19931;-66
2021/04/19 04:00:33;;;;;;;;;;;7.10;99.90;;;;;;5093028;28;19916;-68
2021/04/19 04:02:59;;;;;;;;;;;7.10;99.90;;;;;;5093507;28;19912;-67
2021/04/19 04:05:25;;;;;;;;;;;7.10;99.90;;;;;;5093372;28;19914;-67
2021/04/19 04:07:51;;;;;;;;;;;7.10;99.90;;;;;;5092866;28;19950;-67
2021/04/19 04:10:20;;;;;;;;;;;7.10;99.90;;;;;;5093449;28;19908;-67
2021/04/19 04:12:47;;;;;;;;;;;7.10;99.90;;;;;;5093108;28;19962;-68
2021/04/19 04:15:12;;;;;;;;;;;7.10;99.90;;;;;;5092083;28;19998;-68
2021/04/19 04:17:38;;;;;;;;;;;7.10;99.90;;;;;;5093202;28;19908;-70
2021/04/19 04:20:04;;;;;;;;;;;7.10;99.90;;;;;;5090741;28;19912;-68
2021/04/19 04:22:29;;;;;;;;;;;7.00;99.90;;;;;;5091332;28;19915;-67
2021/04/19 04:24:55;;;;;;;;;;;7.00;99.90;;;;;;5092930;28;19915;-69
2021/04/19 04:27:21;;;;;;;;;;;7.00;99.90;;;;;;5092475;28;19908;-68
2021/04/19 04:29:46;;;;;;;;;;;7.10;99.90;;;;;;5081974;28;19916;-68
2021/04/19 04:32:12;;;;;;;;;;;7.10;99.90;;;;;;5092014;28;19914;-68
2021/04/19 04:34:39;;;;;;;;;;;7.10;99.90;;;;;;5090279;28;19912;-70
2021/04/19 04:37:05;;;;;;;;;;;7.10;99.90;;;;;;5092088;28;19908;-68
2021/04/19 04:39:30;;;;;;;;;;;7.10;99.90;;;;;;5091658;28;19908;-68
2021/04/19 04:41:56;;;;;;;;;;;7.10;99.90;;;;;;5092692;28;19908;-69
2021/04/19 04:44:25;;;;;;;;;;;7.10;99.90;;;;;;5083872;28;19912;-68
2021/04/19 04:46:53;;;;;;;;;;;7.10;99.90;;;;;;5094939;28;19931;-69
2021/04/19 04:49:22;;;;;;;;;;;7.20;99.90;;;;;;5095604;28;19908;-69
2021/04/19 04:51:48;;;;;;;;;;;7.20;99.90;;;;;;5094556;28;19912;-68
2021/04/19 04:54:17;;;;;;;;;;;7.20;99.90;;;;;;5095500;28;20265;-68
2021/04/19 04:56:48;;;;;;;;;;;7.20;99.90;;;;;;5095282;28;20387;-68
2021/04/19 04:59:14;;;;;;;;;;;7.20;99.90;;;;;;5096910;28;19915;-67
2021/04/19 05:01:42;;;;;;;;;;;7.30;99.90;;;;;;5094638;28;19908;-68
2021/04/19 05:04:07;;;;;;;;;;;7.20;99.90;;;;;;5092549;28;19915;-67
2021/04/19 05:06:33;;;;;;;;;;;7.20;99.90;;;;;;5094447;28;20284;-67
2021/04/19 05:09:00;;;;;;;;;;;7.20;99.90;;;;;;5091441;28;20357;-68
2021/04/19 05:11:25;;;;;;;;;;;7.20;99.90;;;;;;5094843;28;19915;-68
2021/04/19 05:13:58;;;;;;;;;;;7.30;99.90;;;;;;5093821;28;20296;-68
2021/04/19 05:16:25;;;;;;;;;;;7.30;99.90;;;;;;5093961;28;19912;-67
2021/04/19 05:18:50;;;;;;;;;;;7.30;99.90;;;;;;5092221;28;19908;-67
2021/04/19 05:21:16;;;;;;;;;;;7.30;99.90;;;;;;5094178;28;20330;-69
2021/04/19 05:23:41;;;;;;;;;;;7.40;99.90;;;;;;5094958;28;20367;-67
2021/04/19 05:26:07;;;;;;;;;;;7.40;99.90;;;;;;5093203;28;20363;-67
2021/04/19 05:28:32;;;;;;;;;;;7.40;99.90;;;;;;5092982;28;19965;-68
2021/04/19 05:30:58;;;;;;;;;;;7.40;99.90;;;;;;5093268;28;20310;-68
2021/04/19 05:33:24;;;;;;;;;;;7.50;99.90;;;;;;5096271;28;19916;-68
2021/04/19 05:35:51;;;;;;;;;;;7.50;99.90;;;;;;5095308;28;19912;-67
2021/04/19 05:38:17;;;;;;;;;;;7.70;99.90;;;;;;5094589;28;20314;-68
2021/04/19 05:40:44;;;;;;;;;;;7.70;99.90;;;;;;5094437;28;19908;-68
2021/04/19 05:43:09;;;;;;;;;;;7.70;99.90;;;;;;5095744;28;19915;-67
2021/04/19 05:45:36;;;;;;;;;;;7.70;99.90;;;;;;5095584;28;19908;-67
2021/04/19 05:48:01;;;;;;;;;;;7.70;99.90;;;;;;5095684;28;19912;-68
2021/04/19 05:50:27;;;;;;;;;;;7.80;99.90;;;;;;5094357;28;19908;-68
2021/04/19 05:52:54;;;;;;;;;;;7.80;99.90;;;;;;5095759;28;19919;-68
2021/04/19 05:55:21;;;;;;;;;;;7.90;99.90;;;;;;5094899;28;19916;-67
2021/04/19 05:57:53;;;;;;;;;;;7.90;99.90;;;;;;5093918;28;19908;-69
2021/04/19 06:00:29;;;;;;;;;;;8.00;99.90;;;;;;5095247;28;19908;-70
2021/04/19 06:02:58;;;;;;;;;;;8.10;99.90;;;;;;5094228;28;20452;-69
2021/04/19 06:05:27;;;;;;;;;;;8.10;99.90;;;;;;5095188;28;20323;-69
2021/04/19 06:07:59;;;;;;;;;;;8.20;99.90;;;;;;5095484;28;19961;-68
2021/04/19 06:10:26;;;;;;;;;;;8.40;99.90;;;;;;5094171;28;19908;-66
2021/04/19 06:12:53;;;;;;;;;;;8.50;99.90;;;;;;5095809;28;19947;-68
2021/04/19 06:15:21;;;;;;;;;;;8.50;99.90;;;;;;5094218;28;19916;-67
2021/04/19 06:17:51;;;;;;;;;;;8.60;99.90;;;;;;5093783;28;19915;-67
2021/04/19 06:20:18;;;;;;;;;;;8.70;99.90;;;;;;5095447;28;20431;-68
2021/04/19 06:22:44;;;;;;;;;;;8.70;99.90;;;;;;5094395;28;20333;-67
2021/04/19 06:25:11;;;;;;;;;;;8.80;99.90;;;;;;5095475;28;19912;-68
2021/04/19 06:27:36;;;;;;;;;;;8.90;99.90;;;;;;5093618;28;20007;-68
2021/04/19 06:30:20;;;;;;;;;;;8.90;99.90;;;;;;5093728;28;20404;-68
2021/04/19 06:32:48;;;;;;;;;;;9.00;99.90;;;;;;5093721;28;19957;-68
2021/04/19 06:35:15;;;;;;;;;;;9.00;99.90;;;;;;5095164;28;19915;-68
2021/04/19 06:37:40;;;;;;;;;;;9.00;99.90;;;;;;5096052;28;19915;-69
2021/04/19 06:40:06;;;;;;;;;;;9.00;99.90;;;;;;5094052;28;20126;-68
2021/04/19 06:42:32;;;;;;;;;;;9.10;99.90;;;;;;5094949;28;19915;-69
2021/04/19 06:45:02;;;;;;;;;;;9.10;99.90;;;;;;5095538;28;20261;-66
2021/04/19 06:47:30;;;;;;;;;;;9.10;99.90;;;;;;5095530;28;19908;-68
2021/04/19 06:49:56;;;;;;;;;;;9.10;99.90;;;;;;5095869;28;19912;-68
2021/04/19 06:52:22;;;;;;;;;;;9.00;99.90;;;;;;5095318;28;19923;-68
2021/04/19 06:54:47;;;;;;;;;;;9.00;99.90;;;;;;5099006;28;19920;-67
2021/04/19 06:57:14;;;;;;;;;;;9.00;99.90;;;;;;5098511;28;19915;-68
2021/04/19 06:59:41;;;;;;;;;;;9.10;99.90;;;;;;5100380;28;20364;-68
2021/04/19 07:02:12;;;;;;;;;;;9.20;99.90;;;;;;5098372;28;19908;-68
2021/04/19 07:04:38;;;;;;;;;;;9.30;99.90;;;;;;5092439;28;19908;-68
2021/04/19 07:07:03;;;;;;;;;;;9.30;99.90;;;;;;5094289;28;20308;-68
2021/04/19 07:09:35;;;;;;;;;;;9.40;99.90;;;;;;5094396;28;19908;-69
2021/04/19 07:12:06;;;;;;;;;;;9.50;99.90;;;;;;5094852;28;20004;-68
2021/04/19 07:14:32;;;;;;;;;;;9.50;99.90;;;;;;5093207;28;20283;-68
2021/04/19 07:16:57;;;;;;;;;;;9.60;99.90;;;;;;5093404;28;19908;-68
2021/04/19 07:19:23;;;;;;;;;;;9.70;99.90;;;;;;5093658;28;20378;-67
2021/04/19 07:21:49;;;;;;;;;;;9.70;99.90;;;;;;5094055;28;19915;-68
2021/04/19 07:24:15;;;;;;;;;;;9.80;99.90;;;;;;5093328;28;19908;-68
2021/04/19 07:26:42;;;;;;;;;;;10.00;99.90;;;;;;5091725;28;19908;-68
2021/04/19 07:29:08;;;;;;;;;;;10.20;99.90;;;;;;5088644;28;20296;-68
2021/04/19 07:31:50;;;;;;;;;;;10.10;99.90;;;;;;5093917;28;19911;-68
2021/04/19 07:34:26;;;;;;;;;;;10.20;99.90;;;;;;5090389;28;19908;-67
2021/04/19 07:36:53;;;;;;;;;;;10.30;99.90;;;;;;5093903;28;19916;-68
2021/04/19 07:39:20;;;;;;;;;;;10.30;99.90;;;;;;5092697;28;20272;-68
2021/04/19 07:41:49;;;;;;;;;;;10.10;99.90;;;;;;5093513;28;19910;-68
2021/04/19 07:44:33;;;;;;;;;;;10.00;99.90;;;;;;5093905;28;19916;-67
2021/04/19 07:47:17;;;;;;;;;;;10.20;99.90;;;;;;5091977;28;19995;-69
2021/04/19 07:50:00;;;;;;;;;;;10.30;99.90;;;;;;5089483;28;20030;-69
2021/04/19 07:52:29;;;;;;;;;;;10.40;99.90;;;;;;5093841;28;20363;-67
2021/04/19 07:55:14;;;;;;;;;;;10.40;99.90;;;;;;5093529;28;20371;-68
2021/04/19 07:57:40;;;;;;;;;;;10.50;99.90;;;;;;5093011;28;19997;-69
2021/04/19 08:00:07;;;;;;;;;;;10.70;99.90;;;;;;5093127;28;20363;-67
2021/04/19 08:02:33;;;;;;;;;;;10.90;99.90;;;;;;5093436;28;19908;-68
2021/04/19 08:05:02;;;;;;;;;;;11.00;99.90;;;;;;5093362;28;19915;-69
2021/04/19 08:07:29;;;;;;;;;;;11.10;99.90;;;;;;5091695;28;19958;-67
2021/04/19 08:09:54;;;;;;;;;;;11.20;99.90;;;;;;5079717;28;19915;-67
2021/04/19 08:12:30;;;;;;;;;;;11.30;99.90;;;;;;5092741;28;20280;-67
2021/04/19 08:14:55;;;;;;;;;;;11.50;99.90;;;;;;5093415;28;19912;-67
2021/04/19 08:17:26;;;;;;;;;;;11.60;99.90;;;;;;5092123;28;20427;-67
2021/04/19 08:19:51;;;;;;;;;;;11.80;99.90;;;;;;5090848;28;19916;-69
2021/04/19 08:22:29;;;;;;;;;;;11.90;99.90;;;;;;5091292;28;19998;-72
2021/04/19 08:25:07;;;;;;;;;;;12.10;99.90;;;;;;5079918;28;20371;-78
2021/04/19 08:27:33;;;;;;;;;;;12.40;99.90;;;;;;5091373;28;19912;-71
2021/04/19 08:29:58;;;;;;;;;;;12.40;99.90;;;;;;5081671;28;19915;-74
2021/04/19 08:32:24;;;;;;;;;;;12.50;99.90;;;;;;5090164;28;19911;-71
2021/04/19 08:34:50;;;;;;;;;;;12.60;99.90;;;;;;5108190;28;20018;-72
2021/04/19 08:37:20;;;;;;;;;;;12.60;99.90;;;;;;5091999;28;19915;-71
2021/04/19 08:39:46;;;;;;;;;;;12.50;99.90;;;;;;5092534;28;19920;-70
2021/04/19 08:42:13;;;;;;;;;;;12.50;99.90;;;;;;5092525;28;20072;-71
2021/04/19 08:44:39;;;;;;;;;;;12.40;99.90;;;;;;5091387;28;19908;-72
2021/04/19 08:47:06;;;;;;;;;;;12.50;99.90;;;;;;5092476;28;19915;-78
2021/04/19 08:49:31;;;;;;;;;;;12.60;99.90;;;;;;5090920;28;20007;-77
2021/04/19 08:51:58;;;;;;;;;;;12.40;99.90;;;;;;5091104;28;21329;-68
2021/04/19 08:54:23;;;;;;;;;;;12.50;99.90;;;;;;5086255;28;19909;-68
2021/04/19 08:56:49;;;;;;;;;;;12.70;99.90;;;;;;5088708;28;20279;-68
2021/04/19 08:59:16;;;;;;;;;;;12.90;99.90;;;;;;5082548;28;19998;-70
2021/04/19 09:01:42;;;;;;;;;;;13.00;99.90;;;;;;5082680;28;20379;-68
2021/04/19 09:04:08;;;;;;;;;;;13.30;99.90;;;;;;5083569;28;20005;-71
2021/04/19 09:06:44;;;;;;;;;;;13.40;99.90;;;;;;5083973;28;19908;-71
2021/04/19 09:09:32;;;;;;;;;;;13.20;99.90;;;;;;5083946;28;19908;-72
2021/04/19 09:11:58;;;;;;;;;;;13.50;99.90;;;;;;5084382;28;20483;-74
2021/04/19 09:14:33;;;;;;;;;;;13.70;99.90;;;;;;5086698;28;19908;-71
2021/04/19 09:16:58;;;;;;;;;;;13.60;99.90;;;;;;5089406;28;19953;-72
2021/04/19 09:19:25;;;;;;;;;;;14.20;99.90;;;;;;5090745;28;19916;-73
2021/04/19 09:21:51;;;;;;;;;;;14.40;99.90;;;;;;5090062;28;19916;-72
2021/04/19 09:24:17;;;;;;;;;;;14.90;99.90;;;;;;5089111;28;20342;-71
2021/04/19 09:26:46;;;;;;;;;;;15.30;99.90;;;;;;5089974;28;19916;-72
2021/04/19 09:29:32;;;;;;;;;;;15.60;99.90;;;;;;5087933;28;20114;-73
2021/04/19 09:31:58;;;;;;;;;;;15.20;99.90;;;;;;5088963;28;20376;-71
2021/04/19 09:34:36;;;;;;;;;;;14.80;99.90;;;;;;5088120;28;19947;-72
2021/04/19 09:37:02;;;;;;;;;;;15.00;99.90;;;;;;5090689;28;20340;-71
2021/04/19 09:39:46;;;;;;;;;;;14.90;99.90;;;;;;5087607;28;19924;-70
2021/04/19 09:42:12;;;;;;;;;;;14.90;99.90;;;;;;5090114;28;20358;-71
2021/04/19 09:44:54;;;;;;;;;;;14.50;99.90;;;;;;5087875;28;19925;-72
2021/04/19 09:47:38;;;;;;;;;;;14.00;99.90;;;;;;5086848;28;19955;-71
2021/04/19 09:50:04;;;;;;;;;;;13.70;99.90;;;;;;5087470;28;19908;-73
2021/04/19 09:52:29;;;;;;;;;;;13.60;99.90;;;;;;5101516;28;20451;-72
2021/04/19 09:54:59;;;;;;;;;;;13.60;99.90;;;;;;5086865;28;19917;-71
2021/04/19 09:57:25;;;;;;;;;;;13.70;99.90;;;;;;5088316;28;19908;-74
2021/04/19 09:59:51;;;;;;;;;;;14.00;99.90;;;;;;5088166;28;19938;-71
2021/04/19 10:02:17;;;;;;;;;;;14.10;99.90;;;;;;5086678;28;19995;-72
2021/04/19 10:04:44;;;;;;;;;;;14.20;99.90;;;;;;5086612;28;20002;-77
2021/04/19 10:07:10;;;;;;;;;;;14.10;99.90;;;;;;5087660;28;19912;-74
2021/04/19 10:09:39;;;;;;;;;;;14.30;99.90;;;;;;5088449;28;19997;-76
2021/04/19 10:12:05;;;;;;;;;;;14.60;99.90;;;;;;5087424;28;19908;-73
2021/04/19 10:14:34;;;;;;;;;;;14.80;99.90;;;;;;5089458;28;20368;-73
2021/04/19 10:17:11;;;;;;;;;;;14.90;99.90;;;;;;5084942;28;20374;-73
2021/04/19 10:19:36;;;;;;;;;;;14.90;99.90;;;;;;5088603;28;19989;-73
2021/04/19 10:22:04;;;;;;;;;;;14.90;99.90;;;;;;5086497;28;19908;-74
2021/04/19 10:24:30;;;;;;;;;;;14.70;99.90;;;;;;5086435;28;19908;-71
2021/04/19 10:26:56;;;;;;;;;;;14.60;99.90;;;;;;5086374;28;19908;-71
2021/04/19 10:29:22;;;;;;;;;;;14.70;99.90;;;;;;5087096;28;19911;-70
2021/04/19 10:31:50;;;;;;;;;;;15.10;99.90;;;;;;5087661;28;19916;-74
2021/04/19 10:34:16;;;;;;;;;;;15.10;99.90;;;;;;5088820;28;19926;-74
2021/04/19 10:36:47;;;;;;;;;;;15.10;99.90;;;;;;5088117;28;20358;-74
2021/04/19 10:39:14;;;;;;;;;;;14.90;99.90;;;;;;5094016;28;19916;-74
2021/04/19 10:41:40;;;;;;;;;;;15.00;99.90;;;;;;5094838;28;20376;-73
2021/04/19 10:44:06;;;;;;;;;;;15.00;99.90;;;;;;5093382;28;19908;-74
2021/04/19 10:46:33;;;;;;;;;;;14.90;99.90;;;;;;5091733;28;19919;-73
2021/04/19 10:49:00;;;;;;;;;;;14.90;99.90;;;;;;5084621;28;19915;-73
2021/04/19 10:51:29;;;;;;;;;;;14.90;99.90;;;;;;5091417;28;19912;-69
2021/04/19 10:53:56;;;;;;;;;;;15.20;99.90;;;;;;5088293;28;19912;-69
2021/04/19 10:56:24;;;;;;;;;;;15.40;99.90;;;;;;5090394;28;19924;-68
2021/04/19 10:58:50;;;;;;;;;;;15.40;99.90;;;;;;5090008;28;19907;-68
2021/04/19 11:01:22;;;;;;;;;;;15.20;99.90;;;;;;5086674;28;19908;-70
2021/04/19 11:03:48;;;;;;;;;;;15.20;99.90;;;;;;5085910;28;20283;-70
2021/04/19 11:06:15;;;;;;;;;;;15.40;99.90;;;;;;5088008;28;19912;-71
2021/04/19 11:09:00;;;;;;;;;;;15.30;99.90;;;;;;5088070;28;20002;-69
2021/04/19 11:11:27;;;;;;;;;;;15.20;99.90;;;;;;5104005;28;19912;-68
2021/04/19 11:13:54;;;;;;;;;;;15.40;99.90;;;;;;5083200;28;19908;-68
2021/04/19 11:16:22;;;;;;;;;;;15.60;99.90;;;;;;5087619;28;19912;-68
2021/04/19 11:18:49;;;;;;;;;;;15.70;99.90;;;;;;5086900;28;19908;-68
2021/04/19 11:21:27;;;;;;;;;;;15.70;99.90;;;;;;5084250;28;20356;-71
2021/04/19 11:24:06;;;;;;;;;;;15.50;99.90;;;;;;5085446;28;19911;-69
2021/04/19 11:26:32;;;;;;;;;;;15.60;99.90;;;;;;5086684;28;19912;-68
2021/04/19 11:28:57;;;;;;;;;;;15.90;99.90;;;;;;5092239;28;19933;-69
2021/04/19 11:31:23;;;;;;;;;;;16.00;99.90;;;;;;5088433;28;20291;-69
2021/04/19 11:34:05;;;;;;;;;;;16.10;99.90;;;;;;5091468;28;19908;-69
2021/04/19 11:36:41;;;;;;;;;;;16.30;99.90;;;;;;5081656;28;19912;-67
2021/04/19 11:39:10;;;;;;;;;;;16.60;99.90;;;;;;5092686;28;20349;-68
2021/04/19 11:41:37;;;;;;;;;;;16.60;99.90;;;;;;5093811;28;19961;-67
2021/04/19 11:44:02;;;;;;;;;;;16.60;99.90;;;;;;5087053;28;19908;-68
2021/04/19 11:46:28;;;;;;;;;;;16.50;99.90;;;;;;5084640;28;19995;-67
2021/04/19 11:48:53;;;;;;;;;;;16.40;99.90;;;;;;5087087;28;20295;-71
2021/04/19 11:51:20;;;;;;;;;;;16.40;99.90;;;;;;5082083;28;19920;-69
2021/04/19 11:53:46;;;;;;;;;;;16.40;99.90;;;;;;5086173;28;19943;-69
2021/04/19 11:56:12;;;;;;;;;;;16.20;99.90;;;;;;5087729;28;19916;-70
2021/04/19 11:58:41;;;;;;;;;;;16.10;99.90;;;;;;5087951;28;19916;-69
2021/04/19 12:01:07;;;;;;;;;;;16.10;99.90;;;;;;5083491;28;19912;-71
2021/04/19 12:03:32;;;;;;;;;;;16.10;99.90;;;;;;5087126;28;19915;-70
2021/04/19 12:05:58;;;;;;;;;;;16.10;99.90;;;;;;5087343;28;20348;-70
2021/04/19 12:08:23;;;;;;;;;;;16.00;99.90;;;;;;5089771;28;19961;-70
2021/04/19 12:10:49;;;;;;;;;;;16.10;99.90;;;;;;5087450;28;19931;-71
2021/04/19 12:13:15;;;;;;;;;;;16.30;99.90;;;;;;5086836;28;19908;-69
2021/04/19 12:15:41;;;;;;;;;;;16.30;99.90;;;;;;5088910;28;19973;-69
2021/04/19 12:18:07;;;;;;;;;;;16.40;99.90;;;;;;5087480;28;19911;-68
2021/04/19 12:20:32;;;;;;;;;;;16.70;99.90;;;;;;5087549;28;19908;-68
2021/04/19 12:22:57;;;;;;;;;;;17.20;99.90;;;;;;5086914;28;20359;-68
2021/04/19 12:25:23;;;;;;;;;;;17.30;99.90;;;;;;5085471;28;19913;-68
2021/04/19 12:27:48;;;;;;;;;;;17.20;99.90;;;;;;5089469;28;20010;-69
2021/04/19 12:30:14;;;;;;;;;;;17.20;99.90;;;;;;5088223;28;19908;-70
2021/04/19 12:32:40;;;;;;;;;;;17.40;99.90;;;;;;5089661;28;20316;-70
2021/04/19 12:35:05;;;;;;;;;;;17.60;99.90;;;;;;5090823;28;19965;-69
2021/04/19 12:37:31;;;;;;;;;;;17.60;99.90;;;;;;5092181;28;19911;-69
2021/04/19 12:39:56;;;;;;;;;;;17.60;99.70;;;;;;5090445;28;19908;-69
2021/04/19 12:42:22;;;;;;;;;;;17.90;99.40;;;;;;5095034;28;19914;-71
2021/04/19 12:44:47;;;;;;;;;;;18.00;99.60;;;;;;5095150;28;20375;-70
2021/04/19 12:47:13;;;;;;;;;;;18.30;98.30;;;;;;5097998;28;19915;-69
2021/04/19 12:49:38;;;;;;;;;;;18.10;98.20;;;;;;5095988;28;20326;-69
2021/04/19 12:52:04;;;;;;;;;;;18.20;98.60;;;;;;5092479;28;20011;-69
2021/04/19 12:54:30;;;;;;;;;;;18.60;98.70;;;;;;5091796;28;19915;-69
2021/04/19 12:56:56;;;;;;;;;;;18.70;97.40;;;;;;5089990;28;19908;-69
2021/04/19 12:59:21;;;;;;;;;;;18.50;98.00;;;;;;5086946;28;19916;-69
2021/04/19 13:01:47;;;;;;;;;;;18.30;98.00;;;;;;5085373;28;20279;-69
2021/04/19 13:04:16;;;;;;;;;;;18.00;98.40;;;;;;5087432;28;19908;-69
2021/04/19 13:06:41;;;;;;;;;;;17.80;98.00;;;;;;5088548;28;19939;-68
2021/04/19 13:09:07;;;;;;;;;;;17.50;99.00;;;;;;5090187;28;19916;-70
2021/04/19 13:11:33;;;;;;;;;;;17.30;98.50;;;;;;5089080;28;20011;-69
2021/04/19 13:13:59;;;;;;;;;;;16.90;99.30;;;;;;5087776;28;19915;-68
2021/04/19 13:16:24;;;;;;;;;;;16.70;99.90;;;;;;5089594;28;19951;-68
2021/04/19 13:18:50;;;;;;;;;;;16.50;99.90;;;;;;5088834;28;19913;-69
2021/04/19 13:21:15;;;;;;;;;;;16.30;99.90;;;;;;5087059;28;19916;-68
2021/04/19 13:23:41;;;;;;;;;;;16.10;99.90;;;;;;5088552;28;19912;-72
2021/04/19 13:26:08;;;;;;;;;;;16.20;99.90;;;;;;5087678;28;19916;-68
2021/04/19 13:28:33;;;;;;;;;;;16.30;99.90;;;;;;5089328;28;20337;-67
2021/04/19 13:30:59;;;;;;;;;;;16.20;99.90;;;;;;5089738;28;19916;-68
2021/04/19 13:33:24;;;;;;;;;;;16.10;99.90;;;;;;5091718;28;19915;-68
2021/04/19 13:35:50;;;;;;;;;;;16.20;99.90;;;;;;5087096;28;19919;-68
2021/04/19 13:38:15;;;;;;;;;;;16.20;99.90;;;;;;5087422;28;19911;-68
2021/04/19 13:40:41;;;;;;;;;;;16.10;99.90;;;;;;5089171;28;19919;-70
2021/04/19 13:43:06;;;;;;;;;;;16.10;99.90;;;;;;5087963;28;20273;-68
2021/04/19 13:45:32;;;;;;;;;;;16.30;99.90;;;;;;5090214;28;19908;-71
2021/04/19 13:47:57;;;;;;;;;;;16.40;99.90;;;;;;5088564;28;20257;-68
2021/04/19 13:50:23;;;;;;;;;;;16.50;99.90;;;;;;5088187;28;19909;-67
2021/04/19 13:52:49;;;;;;;;;;;16.50;99.90;;;;;;5088579;28;20364;-69
2021/04/19 13:55:15;;;;;;;;;;;16.50;99.90;;;;;;5088550;28;19912;-69
2021/04/19 13:57:41;;;;;;;;;;;16.50;99.90;;;;;;5088320;28;19908;-69
2021/04/19 14:00:08;;;;;;;;;;;16.40;99.90;;;;;;5088485;28;19908;-68
2021/04/19 14:02:33;;;;;;;;;;;16.40;99.90;;;;;;5086972;28;19912;-68
2021/04/19 14:04:59;;;;;;;;;;;16.50;99.90;;;;;;5085273;28;19926;-68
2021/04/19 14:07:24;;;;;;;;;;;16.60;99.90;;;;;;5086549;28;20284;-68
2021/04/19 14:09:50;;;;;;;;;;;16.70;99.90;;;;;;5088755;28;20257;-68
2021/04/19 14:12:17;;;;;;;;;;;16.90;99.90;;;;;;5094886;28;19904;-70
2021/04/19 14:14:43;;;;;;;;;;;16.80;99.90;;;;;;5095276;28;20004;-68
2021/04/19 14:17:08;;;;;;;;;;;16.80;99.90;;;;;;5096036;28;19946;-69
2021/04/19 14:19:34;;;;;;;;;;;16.80;99.90;;;;;;5090251;28;19908;-68
2021/04/19 14:22:00;;;;;;;;;;;16.80;99.90;;;;;;5087038;28;20264;-71
2021/04/19 14:24:25;;;;;;;;;;;16.80;99.90;;;;;;5093103;28;19911;-69
2021/04/19 14:26:51;;;;;;;;;;;16.70;99.90;;;;;;5094684;28;19957;-69
2021/04/19 14:29:16;;;;;;;;;;;16.50;99.90;;;;;;5094373;28;19962;-69